Leet, West Virginia
Current Conditions -  °F | °C
As of 8:35 AM on Thursday 30 Oct 2014 (Local Time) from KSJS Reporting Station
Overcast Overcast  
Wind Chill: 38°   Ceiling: 4300
Heat Index: 38°   Visibility: 10mi
Dew Point: 37°   Wind: 0mph
Humidity: 95%   Direction: NA
Pressure: 30.15"   Gusts: NA
Location:  37.9989°N, 82.1851°W
Report Text: KSJS 301235Z AUTO 00000KT 10SM OVC043 04/03 A3015 RMK AO2 T00350027
Loading
Personal Weather Stations






























Interactive Weather Map New forecast layout! Learn more

10-Day Weather Forecast

Advertisements
Track Severe Weather on mobile